»·PEaware :: AAL522 KBFI-KSFO

AAL522 :: KBFI-KSFO

FLIGHT INFORMATION

Flight Status: Arrived
Operator:
American Airlines
More flights by this operator :: More flights under this callsign
Pilot: Anonymous 15267 (15267)
Aircraft: AIRBUS A320
(A320)
More flights by this aircraft type
Origin: KBFI Boeing Field/King Co Intl
United States
Destination: KSFO San Francisco Intl
United States
More flights between these airports :: More routes between these airports
Route: +KENT8 SUMMA J5 POWEL LMT J65 RBL MRRLO BDEGA2
File this flight plan on PilotEdge
Remarks: / L
Altitude:
(Current/Filed)
37,000ft
Speed:
(Current/Filed)
350kts
Departed: 19-Dec-17 04:10 PM
Arrived: 19-Dec-17 06:00 PM
Distance/Time
Traveled:
595nm/1:50
Distance/Time
To Go:
Arrived

Flight Plot

Page will automatically refresh every two minutes.

Flight plan parsing failed; only flown route is shown


Map Options




Map Legend


Flown Route
Filed Route
Departure Airport
Arrival Airport
Navaid (VOR, NDB)
Fix

Horizontal Profiles

Position Reports

Time Latitude Longitude Heading Altitude Ground
Speed
19-Dec-17 16:09 47.538185 -122.312436 240 24ft 0kts
19-Dec-17 16:10 47.538185 -122.312436 240 24ft 0kts
19-Dec-17 16:11 47.538609 -122.313677 331 24ft 8kts
19-Dec-17 16:12 47.539428 -122.313380 60 24ft 2kts
19-Dec-17 16:13 47.539470 -122.313249 65 24ft 0kts
19-Dec-17 16:14 47.539781 -122.312481 58 24ft 0kts
19-Dec-17 16:15 47.539948 -122.312081 58 24ft 6kts
19-Dec-17 16:16 47.528604 -122.301003 152 239ft 151kts
19-Dec-17 16:17 47.484805 -122.263696 153 2040ft 216kts
19-Dec-17 16:18 47.435391 -122.220345 153 2277ft 208kts
19-Dec-17 16:19 47.386505 -122.178552 158 5277ft 214kts
19-Dec-17 16:20 47.329844 -122.162748 172 8603ft 221kts
19-Dec-17 16:21 47.271058 -122.148119 180 11750ft 233kts
19-Dec-17 16:22 47.197172 -122.130217 178 13249ft 304kts
19-Dec-17 16:23 47.110707 -122.108699 178 15311ft 330kts
19-Dec-17 16:24 47.020953 -122.086460 178 17639ft 336kts
19-Dec-17 16:25 46.928275 -122.063729 179 19756ft 342kts
19-Dec-17 16:26 46.846553 -122.043788 180 21441ft 348kts
19-Dec-17 16:27 46.751108 -122.020579 180 23219ft 354kts
19-Dec-17 16:28 46.654928 -121.997285 181 24757ft 362kts
19-Dec-17 16:29 46.555250 -121.964210 176 26028ft 380kts
19-Dec-17 16:30 46.452327 -121.924571 176 27197ft 390kts
19-Dec-17 16:31 46.346892 -121.884128 176 28300ft 399kts
19-Dec-17 16:32 46.239084 -121.842957 176 29316ft 409kts
19-Dec-17 16:33 46.129261 -121.801171 176 30303ft 418kts
19-Dec-17 16:34 46.016657 -121.758503 175 31226ft 425kts
19-Dec-17 16:35 45.903904 -121.715927 175 32272ft 426kts
19-Dec-17 16:36 45.803397 -121.678158 175 33160ft 428kts
19-Dec-17 16:37 45.689008 -121.635340 175 34122ft 429kts
19-Dec-17 16:38 45.574124 -121.592536 175 34922ft 432kts
19-Dec-17 16:39 45.457965 -121.549428 174 35601ft 434kts
19-Dec-17 16:40 45.341652 -121.506440 175 36213ft 437kts
19-Dec-17 16:41 45.224145 -121.463230 175 36782ft 443kts
19-Dec-17 16:42 45.104391 -121.419350 175 36810ft 448kts
19-Dec-17 16:43 44.984854 -121.375711 175 36809ft 447kts
19-Dec-17 16:44 44.878732 -121.337149 176 36814ft 445kts
19-Dec-17 16:45 44.760617 -121.294409 176 36791ft 444kts
19-Dec-17 16:46 44.641462 -121.251484 176 36788ft 444kts
19-Dec-17 16:47 44.522481 -121.208800 176 36800ft 445kts
19-Dec-17 16:48 44.403075 -121.166141 176 36810ft 445kts
19-Dec-17 16:49 44.284519 -121.123962 176 36816ft 446kts
19-Dec-17 16:50 44.165591 -121.094459 194 36818ft 423kts
19-Dec-17 16:51 44.054295 -121.127175 202 36829ft 410kts
19-Dec-17 16:52 43.944354 -121.162926 202 36810ft 409kts
19-Dec-17 16:53 43.839791 -121.196825 202 36802ft 409kts
19-Dec-17 16:54 43.729565 -121.232435 202 36807ft 408kts
19-Dec-17 16:55 43.620570 -121.267511 202 36853ft 407kts
19-Dec-17 16:56 43.510407 -121.302843 202 36814ft 407kts
19-Dec-17 16:57 43.400409 -121.337986 202 36823ft 407kts
19-Dec-17 16:58 43.290781 -121.372878 202 36834ft 408kts
19-Dec-17 16:59 43.181102 -121.407655 202 36839ft 408kts
19-Dec-17 17:00 43.071616 -121.442244 202 36839ft 408kts
19-Dec-17 17:01 42.961910 -121.476773 202 36879ft 407kts
19-Dec-17 17:02 42.856386 -121.509880 202 36977ft 408kts
19-Dec-17 17:03 42.746239 -121.544300 202 36980ft 409kts
19-Dec-17 17:04 42.636605 -121.578437 202 36977ft 409kts
19-Dec-17 17:05 42.525895 -121.612784 202 36972ft 408kts
19-Dec-17 17:06 42.415514 -121.646908 202 36968ft 408kts
19-Dec-17 17:07 42.312918 -121.678523 202 36972ft 410kts
19-Dec-17 17:08 42.201576 -121.712701 202 36985ft 411kts
19-Dec-17 17:09 42.089430 -121.743808 200 36983ft 414kts
19-Dec-17 17:10 41.976569 -121.772558 200 36977ft 414kts
19-Dec-17 17:11 41.875722 -121.798165 200 36970ft 414kts
19-Dec-17 17:12 41.763081 -121.826671 200 36969ft 414kts
19-Dec-17 17:13 41.651916 -121.854701 199 36967ft 414kts
19-Dec-17 17:14 41.539610 -121.882919 199 37039ft 414kts
19-Dec-17 17:15 41.428002 -121.910870 199 37104ft 415kts
19-Dec-17 17:16 41.315519 -121.938931 199 37107ft 416kts
19-Dec-17 17:17 41.202191 -121.967107 199 37075ft 416kts
19-Dec-17 17:18 41.089482 -121.995030 199 37048ft 416kts
19-Dec-17 17:19 40.977116 -122.022788 199 37051ft 417kts
19-Dec-17 17:20 40.872699 -122.048488 199 37054ft 417kts
19-Dec-17 17:21 40.760456 -122.076015 199 37101ft 418kts
19-Dec-17 17:22 40.648012 -122.103503 199 37167ft 419kts
19-Dec-17 17:23 40.534558 -122.131133 199 37168ft 419kts
19-Dec-17 17:24 40.420260 -122.158875 199 37163ft 419kts
19-Dec-17 17:25 40.306562 -122.186380 199 37186ft 420kts
19-Dec-17 17:26 40.192816 -122.213801 198 37186ft 420kts
19-Dec-17 17:27 40.079006 -122.242107 200 37188ft 418kts
19-Dec-17 17:28 39.966336 -122.274697 200 37189ft 419kts
19-Dec-17 17:29 39.862114 -122.304738 198 37130ft 424kts
19-Dec-17 17:30 39.746819 -122.337858 198 37174ft 431kts
19-Dec-17 17:31 39.629711 -122.371354 198 37244ft 434kts
19-Dec-17 17:32 39.512369 -122.404800 198 37249ft 434kts
19-Dec-17 17:33 39.395334 -122.438051 198 37225ft 434kts
19-Dec-17 17:34 39.278731 -122.471063 198 36927ft 430kts
19-Dec-17 17:35 39.162576 -122.503851 199 35972ft 429kts
19-Dec-17 17:36 39.045771 -122.536718 199 35153ft 431kts
19-Dec-17 17:37 38.929652 -122.569245 199 34087ft 429kts
19-Dec-17 17:38 38.834555 -122.596068 199 31818ft 432kts
19-Dec-17 17:39 38.720772 -122.628216 199 29678ft 419kts
19-Dec-17 17:40 38.615948 -122.657746 198 27733ft 406kts
19-Dec-17 17:41 38.510217 -122.687457 199 26048ft 386kts
19-Dec-17 17:42 38.407598 -122.716283 199 24074ft 375kts
19-Dec-17 17:43 38.308380 -122.744050 199 22148ft 363kts
19-Dec-17 17:44 38.211308 -122.763545 177 20212ft 370kts
19-Dec-17 17:45 38.112290 -122.734890 174 18307ft 362kts
19-Dec-17 17:46 38.015743 -122.706808 174 16371ft 354kts
19-Dec-17 17:47 37.922252 -122.679752 173 14555ft 344kts
19-Dec-17 17:48 37.846921 -122.617843 143 12834ft 351kts
19-Dec-17 17:49 37.773785 -122.540019 143 11339ft 332kts
19-Dec-17 17:50 37.706691 -122.468836 143 11022ft 310kts
19-Dec-17 17:51 37.641078 -122.399155 143 11022ft 310kts
19-Dec-17 17:52 37.571873 -122.344293 159 10093ft 296kts
19-Dec-17 17:53 37.500953 -122.301558 155 7678ft 286kts
19-Dec-17 17:54 37.435365 -122.252548 121 6037ft 276kts
19-Dec-17 17:55 37.403395 -122.166388 114 5215ft 278kts
19-Dec-17 17:56 37.373010 -122.082971 112 4483ft 252kts
19-Dec-17 17:57 37.402697 -122.027611 356 4078ft 228kts
19-Dec-17 17:58 37.463173 -122.037110 330 4175ft 214kts
19-Dec-17 17:59 37.501020 -122.093997 295 4327ft 206kts
19-Dec-17 18:00 37.526619 -122.155166 295 3648ft 186kts
19-Dec-17 18:01 37.548550 -122.207608 297 2626ft 151kts
19-Dec-17 18:02 37.565939 -122.249163 298 1954ft 131kts
19-Dec-17 18:03 37.582485 -122.290040 299 1253ft 136kts
19-Dec-17 18:04 37.600479 -122.331875 298 510ft 132kts
19-Dec-17 18:05 37.614317 -122.364550 295 19ft 119kts
19-Dec-17 18:06 37.618942 -122.379238 257 18ft 12kts
19-Dec-17 18:07 37.618038 -122.380317 270 18ft 2kts
19-Dec-17 18:08 37.618128 -122.380798 270 18ft 0kts

Navigation Log

Ident Type
Flight plan parsing failed, navigation log unavailable